Time;durP1;ratioP1;P1;durP2;ratioP2;P2;SDS_P1;SDS_P2;PMS_P1;PMS_P2;Temp;Humidity;BMP_temperature;BMP_pressure;BME280_temperature;BME280_humidity;BME280_pressure;Samples;Min_cycle;Max_cycle;Signal;HPM_P1;HPM_P2
2021/08/12 00:00:30;;;;;;;1.40;1.30;;;26.50;53.40;;;;;;5029615;28;20100;-69
2021/08/12 00:02:57;;;;;;;1.17;1.17;;;26.50;53.40;;;;;;5029661;28;20054;-69
2021/08/12 00:05:25;;;;;;;1.20;1.20;;;26.40;53.30;;;;;;5029463;28;20052;-69
2021/08/12 00:07:52;;;;;;;1.50;1.30;;;26.50;53.40;;;;;;5029658;28;20554;-69
2021/08/12 00:10:19;;;;;;;2.10;2.00;;;26.40;53.30;;;;;;5029309;28;20482;-69
2021/08/12 00:12:46;;;;;;;1.30;1.20;;;26.50;53.40;;;;;;5029296;28;20391;-69
2021/08/12 00:15:15;;;;;;;1.60;1.38;;;26.50;53.40;;;;;;5029188;28;20059;-69
2021/08/12 00:17:42;;;;;;;1.63;1.52;;;26.40;53.30;;;;;;5029382;28;20060;-69
2021/08/12 00:20:10;;;;;;;1.38;1.27;;;26.50;53.40;;;;;;5029366;28;20500;-69
2021/08/12 00:22:38;;;;;;;1.33;1.23;;;26.40;53.30;;;;;;5029263;28;20153;-69
2021/08/12 00:25:06;;;;;;;1.48;1.38;;;26.50;53.40;;;;;;5029451;28;20085;-69
2021/08/12 00:27:34;;;;;;;1.50;1.40;;;26.40;53.30;;;;;;5029368;28;20509;-69
2021/08/12 00:30:01;;;;;;;1.10;1.10;;;26.50;53.40;;;;;;5028969;28;20570;-69
2021/08/12 00:32:28;;;;;;;1.25;1.13;;;26.50;53.40;;;;;;5029248;28;20491;-69
2021/08/12 00:34:56;;;;;;;1.02;0.98;;;26.40;53.30;;;;;;5027935;28;20087;-69
2021/08/12 00:37:23;;;;;;;1.08;1.08;;;26.40;53.30;;;;;;5029258;28;20124;-69
2021/08/12 00:39:50;;;;;;;1.20;1.20;;;26.40;53.30;;;;;;5028998;28;20140;-69
2021/08/12 00:42:17;;;;;;;1.73;1.63;;;26.40;53.30;;;;;;5028223;28;20085;-68
2021/08/12 00:44:44;;;;;;;1.63;1.48;;;26.40;53.40;;;;;;5028692;28;20132;-69
2021/08/12 00:47:11;;;;;;;1.58;1.48;;;26.40;53.40;;;;;;5027463;28;20060;-69
2021/08/12 00:49:39;;;;;;;1.50;1.40;;;26.40;53.40;;;;;;5029177;28;20067;-69
2021/08/12 00:52:08;;;;;;;1.48;1.38;;;26.40;53.40;;;;;;5028860;28;20049;-69
2021/08/12 00:54:39;;;;;;;1.40;1.30;;;26.40;53.40;;;;;;5028759;28;20049;-69
2021/08/12 00:57:08;;;;;;;1.40;1.30;;;26.40;53.40;;;;;;5029293;28;20049;-68
2021/08/12 00:59:39;;;;;;;1.23;1.13;;;26.40;53.40;;;;;;5028404;28;20128;-69
2021/08/12 01:02:08;;;;;;;1.10;1.00;;;26.40;53.40;;;;;;5028910;28;20128;-69
2021/08/12 01:04:46;;;;;;;1.05;0.98;;;26.40;53.50;;;;;;5027927;28;20049;-69
2021/08/12 01:07:25;;;;;;;1.45;1.35;;;26.40;53.50;;;;;;5028733;28;20144;-69
2021/08/12 01:10:15;;;;;;;1.88;1.50;;;26.40;53.50;;;;;;5028609;28;20049;-68
2021/08/12 01:13:05;;;;;;;1.10;1.10;;;26.40;53.50;;;;;;5028318;28;20536;-69
2021/08/12 01:15:42;;;;;;;1.13;1.13;;;26.40;53.50;;;;;;5028515;28;20049;-69
2021/08/12 01:18:38;;;;;;;1.60;1.50;;;26.40;53.60;;;;;;5028520;28;20046;-69
2021/08/12 01:21:46;;;;;;;1.30;1.20;;;26.40;53.60;;;;;;5028904;28;20413;-69
2021/08/12 01:24:15;;;;;;;1.20;1.10;;;26.40;53.60;;;;;;5027326;28;20081;-69
2021/08/12 01:26:47;;;;;;;1.20;1.15;;;26.40;53.60;;;;;;5027012;28;20132;-69
2021/08/12 01:29:27;;;;;;;1.67;1.58;;;26.40;53.60;;;;;;5028259;28;20125;-68
2021/08/12 01:32:07;;;;;;;1.38;1.27;;;26.30;53.50;;;;;;5028473;28;20053;-68
2021/08/12 01:34:57;;;;;;;1.83;1.63;;;26.40;53.60;;;;;;5027750;28;20487;-69
2021/08/12 01:37:31;;;;;;;;;;;26.40;54.10;;;;;;5028529;28;20770;-68
2021/08/12 01:40:01;;;;;;;1.48;1.38;;;26.40;53.60;;;;;;5028062;28;19975;-68
2021/08/12 01:42:30;;;;;;;;;;;26.40;53.60;;;;;;5028649;28;20399;-68
2021/08/12 01:44:59;;;;;;;1.35;1.25;;;26.40;53.60;;;;;;5027986;28;20020;-69
2021/08/12 01:47:27;;;;;;;1.20;1.20;;;26.30;53.50;;;;;;5028263;28;20296;-69
2021/08/12 01:49:55;;;;;;;1.13;1.13;;;26.40;53.60;;;;;;5027974;28;20045;-69
2021/08/12 01:52:28;;;;;;;1.65;1.55;;;26.40;53.60;;;;;;5027291;28;20128;-69
2021/08/12 01:54:56;;;;;;;1.35;1.25;;;26.30;53.60;;;;;;5027768;28;20037;-69
2021/08/12 01:57:24;;;;;;;1.05;1.05;;;26.30;53.60;;;;;;5026490;28;20172;-69
2021/08/12 01:59:53;;;;;;;1.35;1.25;;;26.30;53.60;;;;;;5027909;28;20042;-68
2021/08/12 02:02:21;;;;;;;1.50;1.40;;;26.30;53.60;;;;;;5027990;28;20405;-69
2021/08/12 02:04:51;;;;;;;1.20;1.10;;;26.30;53.60;;;;;;5027851;28;20485;-69
2021/08/12 02:07:18;;;;;;;1.50;1.40;;;26.30;53.60;;;;;;5028041;28;20045;-69
2021/08/12 02:09:45;;;;;;;1.30;1.30;;;26.30;53.60;;;;;;5026418;28;20136;-69
2021/08/12 02:12:12;;;;;;;1.20;1.20;;;26.30;53.60;;;;;;5027636;28;20056;-69
2021/08/12 02:14:40;;;;;;;1.33;1.23;;;26.30;53.70;;;;;;5026444;28;20046;-69
2021/08/12 02:17:07;;;;;;;1.27;1.15;;;26.30;53.70;;;;;;5027488;28;20064;-69
2021/08/12 02:19:34;;;;;;;1.10;1.02;;;26.30;53.70;;;;;;5027713;28;20138;-69
2021/08/12 02:22:08;;;;;;;1.88;1.52;;;26.30;53.70;;;;;;5027375;28;20532;-69
2021/08/12 02:24:39;;;;;;;0.93;0.93;;;26.30;53.70;;;;;;5027743;28;20414;-69
2021/08/12 02:27:12;;;;;;;1.20;1.10;;;26.30;53.70;;;;;;5027410;28;20060;-69
2021/08/12 02:29:42;;;;;;;1.23;1.13;;;26.30;53.80;;;;;;5027680;28;20045;-69
2021/08/12 02:32:13;;;;;;;1.45;1.35;;;26.20;53.70;;;;;;5027290;28;20129;-68
2021/08/12 02:34:44;;;;;;;1.60;1.50;;;26.30;53.80;;;;;;5027251;28;20053;-69
2021/08/12 02:37:17;;;;;;;1.40;1.30;;;26.20;53.70;;;;;;5027360;28;20100;-69
2021/08/12 02:39:46;;;;;;;1.67;1.58;;;26.30;53.80;;;;;;5027353;28;20441;-68
2021/08/12 02:42:14;;;;;;;1.67;1.38;;;26.30;53.80;;;;;;5027617;28;20052;-69
2021/08/12 02:44:43;;;;;;;1.50;1.40;;;26.20;53.80;;;;;;5027454;28;20055;-70
2021/08/12 02:47:13;;;;;;;0.88;0.88;;;26.30;53.80;;;;;;5027196;28;20159;-69
2021/08/12 02:49:44;;;;;;;1.45;1.35;;;26.30;53.80;;;;;;5027333;28;20467;-69
2021/08/12 02:52:14;;;;;;;1.45;1.35;;;26.30;53.80;;;;;;5027059;28;20502;-69
2021/08/12 02:54:45;;;;;;;1.20;1.20;;;26.30;53.80;;;;;;5027581;28;20046;-71
2021/08/12 02:57:13;;;;;;;1.35;1.20;;;26.20;53.70;;;;;;5027159;28;20568;-69
2021/08/12 02:59:42;;;;;;;1.33;1.33;;;26.30;53.80;;;;;;5025975;28;20128;-69
2021/08/12 03:02:11;;;;;;;1.10;1.10;;;26.20;53.70;;;;;;5027025;28;20136;-68
2021/08/12 03:04:39;;;;;;;1.33;1.20;;;26.30;53.80;;;;;;5028668;28;20387;-69
2021/08/12 03:07:08;;;;;;;1.30;1.20;;;26.20;53.70;;;;;;5030736;28;20053;-69
2021/08/12 03:09:37;;;;;;;1.35;1.13;;;26.30;53.80;;;;;;5030796;28;20107;-69
2021/08/12 03:12:05;;;;;;;1.25;1.15;;;26.20;53.70;;;;;;5030463;28;20659;-69
2021/08/12 03:14:35;;;;;;;1.30;1.27;;;26.20;53.70;;;;;;5030801;28;20046;-68
2021/08/12 03:17:03;;;;;;;1.20;1.20;;;26.30;53.80;;;;;;5030464;28;20045;-69
2021/08/12 03:19:31;;;;;;;1.25;1.17;;;26.20;53.70;;;;;;5030655;28;20513;-69
2021/08/12 03:22:06;;;;;;;1.40;1.30;;;26.20;53.70;;;;;;5030213;28;20132;-69
2021/08/12 03:24:41;;;;;;;1.45;1.35;;;26.20;53.70;;;;;;5030508;28;20689;-69
2021/08/12 03:27:11;;;;;;;1.50;1.30;;;26.20;53.80;;;;;;5030604;28;20225;-69
2021/08/12 03:29:40;;;;;;;1.13;1.10;;;26.20;53.80;;;;;;5030330;28;20383;-69
2021/08/12 03:32:08;;;;;;;1.60;1.33;;;26.20;53.80;;;;;;5030217;28;20049;-69
2021/08/12 03:34:36;;;;;;;1.45;1.35;;;26.20;53.80;;;;;;5030170;28;20136;-69
2021/08/12 03:37:04;;;;;;;1.00;1.00;;;26.20;53.80;;;;;;5030099;28;20065;-69
2021/08/12 03:39:32;;;;;;;1.27;1.20;;;26.20;53.80;;;;;;5029842;28;20132;-68
2021/08/12 03:42:00;;;;;;;1.50;1.40;;;26.20;53.80;;;;;;5029859;28;20087;-69
2021/08/12 03:44:27;;;;;;;1.05;1.05;;;26.20;53.80;;;;;;5029657;28;20084;-68
2021/08/12 03:47:06;;;;;;;1.55;1.27;;;26.20;53.80;;;;;;5030076;28;20049;-69
2021/08/12 03:49:34;;;;;;;1.83;1.67;;;26.20;53.80;;;;;;5030150;28;20049;-69
2021/08/12 03:52:01;;;;;;;1.35;1.25;;;26.20;53.80;;;;;;5029952;28;20103;-69
2021/08/12 03:54:28;;;;;;;1.40;1.23;;;26.20;53.90;;;;;;5030176;28;20402;-69
2021/08/12 03:56:56;;;;;;;1.38;1.27;;;26.20;53.80;;;;;;5029684;28;20132;-69
2021/08/12 03:59:23;;;;;;;0.85;0.85;;;26.20;53.80;;;;;;5029576;28;20125;-69
2021/08/12 04:01:50;;;;;;;1.38;1.30;;;26.20;53.80;;;;;;5029499;28;20054;-69
2021/08/12 04:04:18;;;;;;;1.38;1.27;;;26.20;53.80;;;;;;5029700;28;20049;-69
2021/08/12 04:06:45;;;;;;;1.10;1.10;;;26.20;53.80;;;;;;5029414;28;20088;-69
2021/08/12 04:09:12;;;;;;;1.25;1.15;;;26.20;53.80;;;;;;5029096;28;20156;-69
2021/08/12 04:11:39;;;;;;;1.17;1.00;;;26.20;53.80;;;;;;5029448;28;20060;-69
2021/08/12 04:14:06;;;;;;;1.30;1.20;;;26.20;53.70;;;;;;5028208;28;20049;-69
2021/08/12 04:16:35;;;;;;;0.93;0.93;;;26.20;53.70;;;;;;5028960;28;20549;-69
2021/08/12 04:19:04;;;;;;;1.05;1.02;;;26.20;53.70;;;;;;5020036;28;20038;-69
2021/08/12 04:21:31;;;;;;;1.10;1.00;;;26.30;53.70;;;;;;5016051;28;20077;-69
2021/08/12 04:23:58;;;;;;;1.48;1.38;;;26.30;53.70;;;;;;5009082;28;20133;-69
2021/08/12 04:26:29;;;;;;;1.52;1.35;;;26.30;53.60;;;;;;5009735;28;20100;-69
2021/08/12 04:28:56;;;;;;;1.00;1.00;;;26.30;53.60;;;;;;5013755;28;20048;-70
2021/08/12 04:31:24;;;;;;;1.30;1.00;;;26.30;53.50;;;;;;5029604;28;20042;-69
2021/08/12 04:33:51;;;;;;;1.50;1.40;;;26.30;53.40;;;;;;5028680;28;20064;-69
2021/08/12 04:36:18;;;;;;;1.42;1.33;;;26.40;53.50;;;;;;5028356;28;20128;-69
2021/08/12 04:38:47;;;;;;;1.60;1.50;;;26.40;53.40;;;;;;5028918;28;20099;-69
2021/08/12 04:41:14;;;;;;;1.30;1.20;;;26.40;53.30;;;;;;5029044;28;20469;-69
2021/08/12 04:43:41;;;;;;;1.20;1.13;;;26.40;53.30;;;;;;5028633;28;20053;-69
2021/08/12 04:46:09;;;;;;;1.77;1.67;;;26.40;53.30;;;;;;5029133;28;20108;-69
2021/08/12 04:48:36;;;;;;;1.35;1.25;;;26.40;53.20;;;;;;5027659;28;20559;-69
2021/08/12 04:51:03;;;;;;;1.50;1.40;;;26.40;53.20;;;;;;5028549;28;20573;-69
2021/08/12 04:53:30;;;;;;;1.45;1.35;;;26.40;53.10;;;;;;5027852;28;20152;-69
2021/08/12 04:55:57;;;;;;;1.30;1.20;;;26.40;53.10;;;;;;5028938;28;20508;-69
2021/08/12 04:58:25;;;;;;;1.00;1.00;;;26.40;53.00;;;;;;5028312;28;20045;-69
2021/08/12 05:00:52;;;;;;;1.45;1.35;;;26.50;53.10;;;;;;5028807;28;20053;-69
2021/08/12 05:03:19;;;;;;;1.38;1.27;;;26.50;53.00;;;;;;5043666;28;20061;-69
2021/08/12 05:05:47;;;;;;;1.38;1.27;;;26.50;53.00;;;;;;5028636;28;20056;-69
2021/08/12 05:08:14;;;;;;;1.50;1.40;;;26.50;53.00;;;;;;5028154;28;20482;-69
2021/08/12 05:10:45;;;;;;;2.00;1.80;;;26.40;53.00;;;;;;5028217;28;20556;-69
2021/08/12 05:13:12;;;;;;;1.45;1.35;;;26.40;53.10;;;;;;5028133;28;20148;-69
2021/08/12 05:15:40;;;;;;;1.30;1.20;;;26.30;53.30;;;;;;5028656;28;20799;-69
2021/08/12 05:18:07;;;;;;;1.52;1.20;;;26.20;53.40;;;;;;5023309;28;20038;-65
2021/08/12 05:20:34;;;;;;;3.65;1.73;;;26.00;53.70;;;;;;5025250;28;20055;-69
2021/08/12 05:23:01;;;;;;;1.70;1.60;;;25.80;54.20;;;;;;5025327;28;20045;-68
2021/08/12 05:25:28;;;;;;;1.95;1.77;;;25.50;55.00;;;;;;5022731;28;20041;-69
2021/08/12 05:27:56;;;;;;;1.88;1.67;;;25.30;56.10;;;;;;5018282;28;20132;-68
2021/08/12 05:30:23;;;;;;;1.92;1.80;;;25.10;56.40;;;;;;5019296;28;20755;-68
2021/08/12 05:32:51;;;;;;;2.47;2.05;;;24.90;56.70;;;;;;5023706;28;20080;-68
2021/08/12 05:35:19;;;;;;;3.58;2.22;;;24.70;56.70;;;;;;5020370;28;20068;-68
2021/08/12 05:37:46;;;;;;;5.18;2.05;;;24.70;56.80;;;;;;5020734;28;20048;-67
2021/08/12 05:40:14;;;;;;;2.92;1.83;;;24.50;56.70;;;;;;5019473;28;20136;-68
2021/08/12 05:42:42;;;;;;;3.75;2.30;;;24.40;56.70;;;;;;5015668;28;20152;-68
2021/08/12 05:45:10;;;;;;;2.90;2.55;;;24.40;56.80;;;;;;5021606;28;20144;-69
2021/08/12 05:47:37;;;;;;;3.53;2.42;;;24.30;56.80;;;;;;5014502;28;20053;-66
2021/08/12 05:50:05;;;;;;;2.78;2.38;;;24.30;57.00;;;;;;5020517;28;20041;-68
2021/08/12 05:52:34;;;;;;;3.13;2.22;;;24.20;57.00;;;;;;5016427;28;20080;-68
2021/08/12 05:55:01;;;;;;;3.83;2.30;;;24.10;57.40;;;;;;5023560;28;20135;-68
2021/08/12 05:57:29;;;;;;;4.38;2.33;;;24.00;57.60;;;;;;5018164;28;20494;-70
2021/08/12 05:59:56;;;;;;;4.63;3.03;;;23.90;58.00;;;;;;5017394;28;20132;-69
2021/08/12 06:02:23;;;;;;;5.88;3.15;;;23.90;58.40;;;;;;5020083;28;20128;-70
2021/08/12 06:04:50;;;;;;;4.57;2.78;;;23.80;59.00;;;;;;5015771;28;20050;-66
2021/08/12 06:07:17;;;;;;;3.13;2.80;;;23.80;59.30;;;;;;5017277;28;20156;-67
2021/08/12 06:09:45;;;;;;;2.83;2.63;;;23.70;59.70;;;;;;5019116;28;20144;-67
2021/08/12 06:12:12;;;;;;;6.97;3.17;;;23.70;60.10;;;;;;5016891;28;20547;-66
2021/08/12 06:14:39;;;;;;;5.05;2.83;;;23.70;60.40;;;;;;5015957;28;20053;-66
2021/08/12 06:17:06;;;;;;;3.33;3.03;;;23.70;60.80;;;;;;5021082;28;20041;-66
2021/08/12 06:19:35;;;;;;;4.65;3.00;;;23.60;61.10;;;;;;5015233;28;20125;-66
2021/08/12 06:22:03;;;;;;;3.40;3.10;;;23.60;61.50;;;;;;5017915;28;20045;-66
2021/08/12 06:24:31;;;;;;;5.63;2.72;;;23.60;61.60;;;;;;5018990;28;20136;-66
2021/08/12 06:26:58;;;;;;;4.55;3.35;;;23.60;61.70;;;;;;5021212;28;20419;-66
2021/08/12 06:29:25;;;;;;;4.00;3.20;;;23.50;61.80;;;;;;5019190;28;20451;-66
2021/08/12 06:31:54;;;;;;;6.03;3.28;;;23.40;62.20;;;;;;5015879;28;20560;-67
2021/08/12 06:34:22;;;;;;;5.97;3.25;;;23.40;62.60;;;;;;5021639;28;20056;-72
2021/08/12 06:36:49;;;;;;;3.05;2.72;;;23.40;62.50;;;;;;5016865;28;20144;-72
2021/08/12 06:39:16;;;;;;;3.53;3.03;;;23.40;62.70;;;;;;5018160;28;20540;-71
2021/08/12 06:41:43;;;;;;;3.88;2.90;;;23.40;62.80;;;;;;5016944;28;20456;-71
2021/08/12 06:44:11;;;;;;;5.63;2.63;;;23.50;62.80;;;;;;5021497;28;20128;-71
2021/08/12 06:46:38;;;;;;;4.57;2.55;;;23.50;62.70;;;;;;5017915;28;20510;-70
2021/08/12 06:49:07;;;;;;;6.15;2.40;;;23.60;62.50;;;;;;5020936;28;20045;-72
2021/08/12 06:51:35;;;;;;;3.40;3.05;;;23.60;62.30;;;;;;5022713;28;20067;-71
2021/08/12 06:54:02;;;;;;;4.32;2.55;;;23.60;62.10;;;;;;5024801;28;20048;-73
2021/08/12 06:56:30;;;;;;;2.70;2.38;;;23.70;62.00;;;;;;5022270;28;20641;-73
2021/08/12 06:58:58;;;;;;;3.63;2.63;;;23.70;62.00;;;;;;5016774;28;20403;-72
2021/08/12 07:01:25;;;;;;;2.92;2.50;;;23.70;62.10;;;;;;5019010;28;20758;-69
2021/08/12 07:03:54;;;;;;;2.97;2.30;;;23.70;62.90;;;;;;5022375;28;20840;-73
2021/08/12 07:06:21;;;;;;;3.17;2.97;;;23.70;62.20;;;;;;5014947;28;20155;-72
2021/08/12 07:08:51;;;;;;;2.45;2.25;;;23.70;61.90;;;;;;5017600;28;20062;-71
2021/08/12 07:11:18;;;;;;;3.78;2.25;;;23.70;61.70;;;;;;5023199;28;20050;-68
2021/08/12 07:13:46;;;;;;;4.85;2.75;;;23.80;61.70;;;;;;5022333;28;20069;-66
2021/08/12 07:16:14;;;;;;;2.45;2.25;;;23.80;61.90;;;;;;5021170;28;20054;-68
2021/08/12 07:18:42;;;;;;;4.35;2.35;;;23.80;62.00;;;;;;5021171;28;20050;-71
2021/08/12 07:21:14;;;;;;;8.18;2.25;;;23.80;62.00;;;;;;5017178;28;20049;-67
2021/08/12 07:23:41;;;;;;;2.90;2.25;;;23.80;62.10;;;;;;5016766;28;20056;-67
2021/08/12 07:26:13;;;;;;;3.55;2.70;;;23.90;62.10;;;;;;5021395;28;20465;-63
2021/08/12 07:28:41;;;;;;;2.40;2.20;;;23.90;62.00;;;;;;5017988;28;20042;-66
2021/08/12 07:31:10;;;;;;;5.80;2.55;;;23.90;62.00;;;;;;5015353;28;20081;-66
2021/08/12 07:33:38;;;;;;;3.20;2.10;;;23.90;62.10;;;;;;5017108;28;20041;-63
2021/08/12 07:36:06;;;;;;;3.70;2.00;;;23.90;62.00;;;;;;5015354;28;20054;-63
2021/08/12 07:38:34;;;;;;;2.92;2.17;;;24.00;62.40;;;;;;5015374;28;20075;-65
2021/08/12 07:41:01;;;;;;;3.30;2.60;;;23.90;62.40;;;;;;5016421;28;20045;-65
2021/08/12 07:43:29;;;;;;;3.65;2.17;;;24.00;62.50;;;;;;5020096;28;20805;-66
2021/08/12 07:45:56;;;;;;;6.03;2.28;;;23.90;62.50;;;;;;5018281;28;20072;-64
2021/08/12 07:48:24;;;;;;;2.33;2.13;;;24.00;62.60;;;;;;5017099;28;20124;-65
2021/08/12 07:50:51;;;;;;;2.72;2.30;;;24.00;62.60;;;;;;5018589;28;20055;-66
2021/08/12 07:53:19;;;;;;;2.38;2.00;;;23.90;62.50;;;;;;5015976;28;20521;-66
2021/08/12 07:55:47;;;;;;;2.50;2.22;;;23.90;62.60;;;;;;5017173;28;20045;-67
2021/08/12 07:58:14;;;;;;;3.80;2.20;;;23.90;62.60;;;;;;5017970;28;20055;-66
2021/08/12 08:00:41;;;;;;;3.75;2.42;;;24.00;62.70;;;;;;5019465;28;20055;-66
2021/08/12 08:03:08;;;;;;;3.17;2.05;;;24.00;62.80;;;;;;5016429;28;20048;-67
2021/08/12 08:05:36;;;;;;;2.45;2.22;;;24.00;62.80;;;;;;5011822;28;20041;-64
2021/08/12 08:08:04;;;;;;;4.75;2.40;;;24.00;62.70;;;;;;5019943;28;20536;-61
2021/08/12 08:10:31;;;;;;;5.50;2.50;;;24.00;63.10;;;;;;5010292;28;20125;-72
2021/08/12 08:12:59;;;;;;;4.40;2.22;;;24.10;63.40;;;;;;5022007;28;20506;-66
2021/08/12 08:15:26;;;;;;;3.10;2.53;;;24.10;63.50;;;;;;5018648;28;20058;-64
2021/08/12 08:18:02;;;;;;;2.72;2.33;;;24.10;63.40;;;;;;5016705;28;20057;-68
2021/08/12 08:20:29;;;;;;;3.22;2.47;;;24.10;63.30;;;;;;5019084;28;20072;-67
2021/08/12 08:23:09;;;;;;;5.07;1.98;;;24.10;63.20;;;;;;5019165;28;20053;-66
2021/08/12 08:25:36;;;;;;;2.30;2.10;;;24.10;63.30;;;;;;5021221;28;20430;-69
2021/08/12 08:28:05;;;;;;;2.65;2.17;;;24.10;63.20;;;;;;5016401;28;20164;-67
2021/08/12 08:30:35;;;;;;;3.40;2.65;;;24.10;63.10;;;;;;5018074;28;20107;-69
2021/08/12 08:33:03;;;;;;;2.33;2.13;;;24.10;63.00;;;;;;5021117;28;20052;-72
2021/08/12 08:35:30;;;;;;;2.33;2.13;;;24.10;62.90;;;;;;5018624;28;20077;-80
2021/08/12 08:37:58;;;;;;;3.33;2.33;;;24.00;62.70;;;;;;5021304;28;20128;-76
2021/08/12 08:40:26;;;;;;;2.67;2.05;;;24.10;62.60;;;;;;5015642;28;20507;-73
2021/08/12 08:42:54;;;;;;;3.38;2.38;;;24.00;62.40;;;;;;5018936;28;20175;-73
2021/08/12 08:45:26;;;;;;;2.30;2.00;;;24.00;62.10;;;;;;5019893;28;20132;-72
2021/08/12 08:47:57;;;;;;;2.08;1.88;;;24.00;61.90;;;;;;5022191;28;20866;-72
2021/08/12 08:50:27;;;;;;;2.58;2.38;;;24.00;62.10;;;;;;5018306;28;20055;-72
2021/08/12 08:52:54;;;;;;;2.08;1.80;;;23.90;61.90;;;;;;5025219;28;20675;-67
2021/08/12 08:55:23;;;;;;;2.42;2.22;;;24.00;61.90;;;;;;5023529;28;20055;-66
2021/08/12 08:57:56;;;;;;;3.00;2.63;;;24.00;62.10;;;;;;5018700;28;20054;-65
2021/08/12 09:00:24;;;;;;;2.30;2.10;;;24.00;62.30;;;;;;5023962;28;20409;-69
2021/08/12 09:02:53;;;;;;;1.77;1.63;;;24.00;62.30;;;;;;5018457;28;20073;-72
2021/08/12 09:05:21;;;;;;;3.55;2.10;;;24.00;62.10;;;;;;5021892;28;20077;-72
2021/08/12 09:07:52;;;;;;;2.30;2.10;;;24.00;62.10;;;;;;5017462;28;20200;-71
2021/08/12 09:10:20;;;;;;;2.60;2.15;;;24.00;61.80;;;;;;5026285;28;20053;-78
2021/08/12 09:12:49;;;;;;;2.67;2.05;;;24.00;61.60;;;;;;5022063;28;20081;-79
2021/08/12 09:15:21;;;;;;;2.92;2.55;;;24.00;61.70;;;;;;5034637;28;20060;-77
2021/08/12 09:17:50;;;;;;;2.33;2.10;;;24.00;61.70;;;;;;5024018;28;20057;-74
2021/08/12 09:20:25;;;;;;;2.33;1.92;;;24.00;62.20;;;;;;5020585;28;20058;-70
2021/08/12 09:23:07;;;;;;;2.38;2.08;;;23.90;62.50;;;;;;5020979;28;20477;-70
2021/08/12 09:25:41;;;;;;;1.70;1.60;;;23.90;62.70;;;;;;5022918;28;20042;-74
2021/08/12 09:28:25;;;;;;;2.22;2.00;;;23.90;62.60;;;;;;5014906;28;20511;-73
2021/08/12 09:31:07;;;;;;;2.30;2.00;;;23.90;62.60;;;;;;5015968;28;20672;-79
2021/08/12 09:33:44;;;;;;;2.13;1.85;;;23.90;62.60;;;;;;5015963;28;20462;-73
2021/08/12 09:36:34;;;;;;;2.40;2.20;;;23.90;62.60;;;;;;5013661;28;20140;-73
2021/08/12 09:39:12;;;;;;;2.80;2.10;;;23.90;62.80;;;;;;5023728;28;20053;-74
2021/08/12 09:41:41;;;;;;;2.20;2.00;;;23.90;62.70;;;;;;5020832;28;20136;-74
2021/08/12 09:44:30;;;;;;;2.57;2.20;;;24.00;62.80;;;;;;5017855;28;20038;-70
2021/08/12 09:46:58;;;;;;;2.28;2.08;;;24.00;62.90;;;;;;5017731;28;20739;-71
2021/08/12 09:49:45;;;;;;;2.42;2.10;;;24.00;63.20;;;;;;5024321;28;20490;-71
2021/08/12 09:52:27;;;;;;;2.33;2.13;;;24.00;63.40;;;;;;5018113;28;20473;-74
2021/08/12 09:55:08;;;;;;;2.42;2.22;;;24.10;63.50;;;;;;5017189;28;20091;-74
2021/08/12 09:57:42;;;;;;;2.75;2.40;;;24.10;63.30;;;;;;5026215;28;20053;-76
2021/08/12 10:00:15;;;;;;;2.13;1.92;;;24.10;62.80;;;;;;5018822;28;20128;-74
2021/08/12 10:02:43;;;;;;;1.92;1.83;;;24.10;62.10;;;;;;5023822;28;20765;-72
2021/08/12 10:05:11;;;;;;;3.08;1.20;;;24.00;61.80;;;;;;5019512;28;21840;-73
2021/08/12 10:07:47;;;;;;;3.15;2.35;;;24.00;61.60;;;;;;5017697;28;20133;-76
2021/08/12 10:10:21;;;;;;;2.53;1.90;;;24.00;61.30;;;;;;5020512;28;20049;-75
2021/08/12 10:12:57;;;;;;;2.30;2.10;;;24.00;60.90;;;;;;5019552;28;20072;-76
2021/08/12 10:15:32;;;;;;;2.72;2.08;;;23.90;60.70;;;;;;5022005;28;20140;-76
2021/08/12 10:18:02;;;;;;;1.67;1.58;;;23.90;60.70;;;;;;5021382;28;20068;-76
2021/08/12 10:20:32;;;;;;;2.22;2.03;;;23.90;60.40;;;;;;5028297;28;20069;-78
2021/08/12 10:23:02;;;;;;;3.63;2.00;;;23.90;60.30;;;;;;5025765;28;20045;-77
2021/08/12 10:25:30;;;;;;;2.67;1.95;;;23.90;60.20;;;;;;5022406;28;20092;-79
2021/08/12 10:28:01;;;;;;;2.50;1.83;;;23.80;60.10;;;;;;5026992;28;20163;-76
2021/08/12 10:30:29;;;;;;;2.88;2.60;;;23.80;60.00;;;;;;5020826;28;20037;-76
2021/08/12 10:32:59;;;;;;;2.13;1.90;;;23.80;60.00;;;;;;5022064;28;20076;-74
2021/08/12 10:35:28;;;;;;;4.20;2.17;;;23.80;59.90;;;;;;5025364;28;20042;-73
2021/08/12 10:37:56;;;;;;;2.20;2.03;;;23.80;60.20;;;;;;5026874;28;20401;-75
2021/08/12 10:40:26;;;;;;;2.10;1.90;;;23.80;60.40;;;;;;5027783;28;20045;-73
2021/08/12 10:42:55;;;;;;;2.72;2.08;;;23.80;60.40;;;;;;5020868;28;20130;-73
2021/08/12 10:45:24;;;;;;;3.30;2.03;;;23.80;60.40;;;;;;5020870;28;20309;-74
2021/08/12 10:47:56;;;;;;;2.05;1.75;;;23.80;60.40;;;;;;5024632;28;20115;-71
2021/08/12 10:50:31;;;;;;;2.88;2.10;;;23.80;60.30;;;;;;5021207;28;20183;-75
2021/08/12 10:53:16;;;;;;;2.97;2.10;;;23.80;60.90;;;;;;5018450;28;20583;-79
2021/08/12 10:56:04;;;;;;;3.45;2.33;;;23.80;60.30;;;;;;5021769;28;20103;-77
2021/08/12 10:58:35;;;;;;;2.22;1.90;;;23.80;60.10;;;;;;5025679;28;20144;-76
2021/08/12 11:01:07;;;;;;;5.05;2.45;;;23.80;60.10;;;;;;5020989;28;20045;-77
2021/08/12 11:03:43;;;;;;;3.20;2.13;;;23.80;60.20;;;;;;5026602;28;20133;-77
2021/08/12 11:06:19;;;;;;;2.38;2.17;;;23.80;60.00;;;;;;5018108;28;20095;-79
2021/08/12 11:08:56;;;;;;;4.18;2.60;;;23.80;59.90;;;;;;5023274;28;20105;-75
2021/08/12 11:11:50;;;;;;;2.33;2.13;;;23.80;59.70;;;;;;5017707;28;20118;-78
2021/08/12 11:14:44;;;;;;;2.65;2.45;;;23.80;59.60;;;;;;5018922;28;20089;-77
2021/08/12 11:17:11;;;;;;;3.60;2.00;;;23.80;59.70;;;;;;5020376;28;20055;-76
2021/08/12 11:19:39;;;;;;;3.25;2.35;;;23.80;59.50;;;;;;5017297;28;20080;-78
2021/08/12 11:22:26;;;;;;;3.72;2.75;;;23.80;59.50;;;;;;5021500;28;20053;-78
2021/08/12 11:24:53;;;;;;;3.17;1.92;;;23.80;59.50;;;;;;5021595;28;20049;-74
2021/08/12 11:27:35;;;;;;;2.72;1.92;;;23.80;59.30;;;;;;5018292;28;20144;-75
2021/08/12 11:30:38;;;;;;;2.30;2.10;;;23.80;59.80;;;;;;5019045;28;20041;-76
2021/08/12 11:33:26;;;;;;;2.97;2.25;;;23.80;59.90;;;;;;5015100;28;20487;-78
2021/08/12 11:36:13;;;;;;;4.90;2.33;;;23.80;59.40;;;;;;5021631;28;20037;-78
2021/08/12 11:39:04;;;;;;;2.40;2.13;;;23.80;59.10;;;;;;5018628;28;20466;-74
2021/08/12 11:41:40;;;;;;;3.08;2.10;;;23.80;59.40;;;;;;5018237;28;20050;-77
2021/08/12 11:44:13;;;;;;;2.60;1.77;;;23.80;59.50;;;;;;5025562;28;20099;-79
2021/08/12 11:46:41;;;;;;;2.70;2.20;;;23.80;59.50;;;;;;5019419;28;20135;-70
2021/08/12 11:49:14;;;;;;;1.92;1.83;;;23.80;59.80;;;;;;5022251;28;20147;-70
2021/08/12 11:51:44;;;;;;;2.45;2.20;;;23.80;60.20;;;;;;5018025;28;20147;-67
2021/08/12 11:54:22;;;;;;;2.75;2.13;;;23.80;60.30;;;;;;5024185;28;20080;-69
2021/08/12 11:56:51;;;;;;;2.35;2.15;;;23.80;60.20;;;;;;5018869;28;20120;-79
2021/08/12 11:59:26;;;;;;;2.75;2.30;;;23.80;60.50;;;;;;5021340;28;20077;-69
2021/08/12 12:02:06;;;;;;;2.08;1.70;;;23.90;60.40;;;;;;5023045;28;20073;-75
2021/08/12 12:04:34;;;;;;;2.45;2.15;;;23.80;60.70;;;;;;5026804;28;20055;-76
2021/08/12 12:07:02;;;;;;;3.63;2.10;;;23.90;60.60;;;;;;5017980;28;20080;-76
2021/08/12 12:09:34;;;;;;;2.00;1.80;;;23.90;60.20;;;;;;5022029;28;20124;-77
2021/08/12 12:12:09;;;;;;;2.25;1.88;;;23.90;60.00;;;;;;5034469;28;20072;-74
2021/08/12 12:14:42;;;;;;;2.78;2.28;;;23.90;60.50;;;;;;5018775;28;20057;-75
2021/08/12 12:17:17;;;;;;;2.95;2.20;;;23.90;59.80;;;;;;5022329;28;20450;-70
2021/08/12 12:20:12;;;;;;;2.75;2.30;;;23.90;59.60;;;;;;5024892;28;20045;-76
2021/08/12 12:22:42;;;;;;;2.38;2.15;;;23.90;59.50;;;;;;5025098;28;20046;-76
2021/08/12 12:25:12;;;;;;;2.08;1.88;;;23.90;59.40;;;;;;5023261;28;20405;-74
2021/08/12 12:27:45;;;;;;;2.25;2.05;;;23.90;59.30;;;;;;5025081;28;20124;-73
2021/08/12 12:30:15;;;;;;;3.03;2.13;;;23.90;59.20;;;;;;5023019;28;20057;-73
2021/08/12 12:32:44;;;;;;;6.50;3.15;;;23.90;59.10;;;;;;5022379;28;20129;-76
2021/08/12 12:35:12;;;;;;;2.25;2.03;;;23.90;59.00;;;;;;5037400;28;20136;-73
2021/08/12 12:37:41;;;;;;;2.40;2.05;;;23.90;59.00;;;;;;5022117;28;20045;-73
2021/08/12 12:40:17;;;;;;;3.25;1.90;;;23.90;59.00;;;;;;5022189;28;20047;-75
2021/08/12 12:42:44;;;;;;;2.65;2.15;;;23.90;58.90;;;;;;5023256;28;20070;-73
2021/08/12 12:45:13;;;;;;;2.60;2.40;;;24.00;58.90;;;;;;5022197;28;20053;-78
2021/08/12 12:47:40;;;;;;;2.58;2.30;;;24.00;58.90;;;;;;5024424;28;20055;-72
2021/08/12 12:50:20;;;;;;;2.03;1.83;;;24.00;58.90;;;;;;5021181;28;20041;-68
2021/08/12 12:52:59;;;;;;;3.53;2.35;;;24.00;59.40;;;;;;5024198;28;20124;-73
2021/08/12 12:55:32;;;;;;;2.53;2.20;;;24.00;60.10;;;;;;5023175;28;21007;-73
2021/08/12 12:58:12;;;;;;;4.70;2.00;;;24.00;60.20;;;;;;5020351;28;20133;-69
2021/08/12 13:00:39;;;;;;;2.50;2.08;;;24.00;60.30;;;;;;5021202;28;20076;-71
2021/08/12 13:03:07;;;;;;;3.05;2.25;;;24.00;60.10;;;;;;5021585;28;20528;-70
2021/08/12 13:05:49;;;;;;;2.45;2.00;;;24.00;60.00;;;;;;5023368;28;20085;-71